createdAt,value
2023-04-03T00:05:05.610Z,44.99
2023-04-03T00:10:27.254Z,45.42
2023-04-03T00:15:47.643Z,45.70
2023-04-03T00:21:10.530Z,45.92
2023-04-03T00:26:31.502Z,46.19
2023-04-03T00:31:53.484Z,46.35
2023-04-03T00:37:14.131Z,46.83
2023-04-03T00:42:35.532Z,46.81
2023-04-03T00:47:57.419Z,46.99
2023-04-03T00:53:23.017Z,47.06
2023-04-03T00:59:05.229Z,47.18
2023-04-03T01:04:41.151Z,47.44
2023-04-03T01:10:07.523Z,47.53
2023-04-03T01:15:35.845Z,47.68
2023-04-03T01:20:56.644Z,47.81
2023-04-03T01:26:17.556Z,48.02
2023-04-03T01:31:47.467Z,48.11
2023-04-03T01:37:08.128Z,48.24
2023-04-03T01:42:28.830Z,48.39
2023-04-03T01:47:49.422Z,48.58
2023-04-03T01:53:11.552Z,48.60
2023-04-03T01:58:32.185Z,48.94
2023-04-03T02:03:53.446Z,48.91
2023-04-03T02:09:14.029Z,49.06
2023-04-03T02:14:34.527Z,49.18
2023-04-03T02:19:55.076Z,49.19
2023-04-03T02:25:16.710Z,49.40
2023-04-03T02:30:37.623Z,49.64
2023-04-03T02:35:59.504Z,49.82
2023-04-03T02:41:21.908Z,49.32
2023-04-03T02:46:43.961Z,49.31
2023-04-03T02:52:05.093Z,49.56
2023-04-03T02:57:26.012Z,49.74
2023-04-03T03:02:47.021Z,49.89
2023-04-03T03:08:07.644Z,49.94
2023-04-03T03:13:28.447Z,50.07
2023-04-03T03:18:49.300Z,50.13
2023-04-03T03:24:10.389Z,50.37
2023-04-03T03:29:31.276Z,50.75
2023-04-03T03:34:52.654Z,50.81
2023-04-03T03:40:14.232Z,50.78
2023-04-03T03:45:34.554Z,51.00
2023-04-03T03:50:56.113Z,51.14
2023-04-03T03:56:21.462Z,51.39
2023-04-03T04:01:42.092Z,51.47
2023-04-03T04:07:04.010Z,51.79
2023-04-03T04:12:26.808Z,51.73
2023-04-03T04:17:48.345Z,51.68
2023-04-03T04:23:09.596Z,51.69
2023-04-03T04:28:31.874Z,51.86
2023-04-03T04:33:54.071Z,51.94
2023-04-03T04:39:14.856Z,52.09
2023-04-03T04:44:36.305Z,52.25
2023-04-03T04:49:57.231Z,52.33
2023-04-03T04:55:18.920Z,52.29
2023-04-03T05:00:39.833Z,52.41
2023-04-03T05:06:01.342Z,52.33
2023-04-03T05:11:25.391Z,52.38
2023-04-03T05:16:47.509Z,52.60
2023-04-03T05:22:08.189Z,52.60
2023-04-03T05:27:29.787Z,52.62
2023-04-03T05:32:52.269Z,52.68
2023-04-03T05:38:19.604Z,52.57
2023-04-03T05:43:40.927Z,52.59
2023-04-03T05:49:04.229Z,52.58
2023-04-03T05:54:30.013Z,52.34
2023-04-03T06:00:13.562Z,52.21
2023-04-03T06:05:42.600Z,52.07
2023-04-03T06:11:05.260Z,51.94
2023-04-03T06:16:26.369Z,51.86
2023-04-03T06:21:48.103Z,51.85
2023-04-03T06:27:10.650Z,51.65
2023-04-03T06:32:31.239Z,51.63
2023-04-03T06:37:51.883Z,51.43
2023-04-03T06:43:12.416Z,51.40
2023-04-03T06:48:33.089Z,51.07
2023-04-03T06:53:55.984Z,51.13
2023-04-03T06:59:16.709Z,50.96
2023-04-03T07:04:37.260Z,50.67
2023-04-03T07:09:57.743Z,50.29
2023-04-03T07:15:18.343Z,49.99
2023-04-03T07:20:40.547Z,49.86
2023-04-03T07:26:02.346Z,49.70
2023-04-03T07:31:23.925Z,49.32
2023-04-03T07:36:44.385Z,48.55
2023-04-03T07:42:05.226Z,48.04
2023-04-03T07:47:26.119Z,47.99
2023-04-03T07:52:47.707Z,47.80
2023-04-03T07:58:08.441Z,47.68
2023-04-03T08:03:29.843Z,47.28
2023-04-03T08:08:50.716Z,47.02
2023-04-03T08:14:16.961Z,46.51
2023-04-03T08:19:46.076Z,45.89
2023-04-03T08:25:06.993Z,46.40
2023-04-03T08:30:27.724Z,46.09
2023-04-03T08:35:48.619Z,46.11
2023-04-03T08:41:17.457Z,46.13
2023-04-03T08:46:48.760Z,45.84
2023-04-03T08:52:15.973Z,46.05
2023-04-03T08:57:41.033Z,46.11
2023-04-03T09:03:01.934Z,45.74
2023-04-03T09:08:33.925Z,45.22
2023-04-03T09:14:09.203Z,44.40
2023-04-03T09:19:33.223Z,43.62
2023-04-03T09:25:01.882Z,42.81
2023-04-03T09:30:25.360Z,42.30
2023-04-03T09:35:48.766Z,42.13
2023-04-03T09:41:24.748Z,41.62
2023-04-03T09:46:45.452Z,41.20
2023-04-03T09:52:21.160Z,41.29
2023-04-03T09:57:41.939Z,40.79
2023-04-03T10:03:04.086Z,40.64
2023-04-03T10:08:36.476Z,39.81
2023-04-03T10:14:00.452Z,38.88
2023-04-03T10:19:32.332Z,38.30
2023-04-03T10:25:17.306Z,37.67
2023-04-03T10:30:56.450Z,37.07
2023-04-03T10:36:19.944Z,36.53
2023-04-03T10:42:19.772Z,35.29
2023-04-03T10:48:05.196Z,31.85
2023-04-03T10:53:33.643Z,20.99
2023-04-03T10:58:59.540Z,14.14
2023-04-03T11:04:24.243Z,11.16
2023-04-03T11:10:15.805Z,9.99
2023-04-03T11:15:36.662Z,9.56
2023-04-03T11:21:05.075Z,9.33
2023-04-03T11:26:31.610Z,7.53
2023-04-03T11:32:17.116Z,6.67
2023-04-03T11:37:42.785Z,6.87
2023-04-03T11:43:23.483Z,5.35
2023-04-03T11:48:46.950Z,6.06
2023-04-03T11:54:44.322Z,5.84
2023-04-03T12:00:44.237Z,5.29
2023-04-03T12:06:07.924Z,4.29
2023-04-03T12:11:33.148Z,3.65
2023-04-03T12:16:58.418Z,2.95
2023-04-03T12:22:21.790Z,2.06
2023-04-03T12:27:43.425Z,1.55
2023-04-03T12:33:22.742Z,1.80
2023-04-03T12:38:58.648Z,3.39
2023-04-03T12:44:25.286Z,2.69
2023-04-03T12:49:46.056Z,2.59
2023-04-03T12:55:19.586Z,1.94
2023-04-03T13:00:40.688Z,1.84
2023-04-03T13:06:04.724Z,2.75
2023-04-03T13:11:27.959Z,2.09
2023-04-03T13:17:01.082Z,1.73
2023-04-03T13:22:40.297Z,1.60
2023-04-03T13:28:12.769Z,2.00
2023-04-03T13:33:38.910Z,1.75
2023-04-03T13:39:06.792Z,2.78
2023-04-03T13:44:31.748Z,3.22
2023-04-03T13:50:26.322Z,3.34
2023-04-03T13:56:03.774Z,6.71
2023-04-03T14:01:26.493Z,4.30
2023-04-03T14:06:48.042Z,3.16
2023-04-03T14:12:30.292Z,2.63
2023-04-03T14:17:56.336Z,3.07
2023-04-03T14:23:17.020Z,2.66
2023-04-03T14:28:37.659Z,2.73
2023-04-03T14:33:58.484Z,2.77
2023-04-03T14:39:19.368Z,2.85
2023-04-03T14:44:40.348Z,3.69
2023-04-03T14:50:03.116Z,3.54
2023-04-03T14:55:25.156Z,3.31
2023-04-03T15:00:46.276Z,2.89
2023-04-03T15:06:07.335Z,2.67
2023-04-03T15:11:28.002Z,2.86
2023-04-03T15:16:49.703Z,3.32
2023-04-03T15:22:18.422Z,4.17
2023-04-03T15:27:41.311Z,5.41
2023-04-03T15:33:02.055Z,6.57
2023-04-03T15:38:22.582Z,6.90
2023-04-03T15:43:43.745Z,8.13
2023-04-03T15:49:04.154Z,8.62
2023-04-03T15:54:26.259Z,10.51
2023-04-03T15:59:46.566Z,13.38
2023-04-03T16:05:07.619Z,16.23
2023-04-03T16:10:29.108Z,18.23
2023-04-03T16:15:50.402Z,18.23
2023-04-03T16:21:11.431Z,18.78
2023-04-03T16:26:32.121Z,19.77
2023-04-03T16:31:53.292Z,20.47
2023-04-03T16:37:14.063Z,21.15
2023-04-03T16:42:36.591Z,21.28
2023-04-03T16:47:58.329Z,21.67
2023-04-03T16:53:19.020Z,22.22
2023-04-03T16:58:39.580Z,22.99
2023-04-03T17:03:59.898Z,23.15
2023-04-03T17:09:21.568Z,23.28
2023-04-03T17:14:43.075Z,23.38
2023-04-03T17:20:04.492Z,23.69
2023-04-03T17:25:25.061Z,23.96
2023-04-03T17:30:45.663Z,24.34
2023-04-03T17:36:06.465Z,24.88
2023-04-03T17:41:27.332Z,25.53
2023-04-03T17:46:48.129Z,25.99
2023-04-03T17:52:08.554Z,26.57
2023-04-03T17:57:31.479Z,27.20
2023-04-03T18:02:54.347Z,27.73
2023-04-03T18:08:14.969Z,28.12
2023-04-03T18:13:37.656Z,28.63
2023-04-03T18:19:20.668Z,28.98
2023-04-03T18:24:39.569Z,29.24
2023-04-03T18:30:02.745Z,29.77
2023-04-03T18:35:24.262Z,30.00
2023-04-03T18:40:47.220Z,30.00
2023-04-03T18:46:07.711Z,30.29
2023-04-03T18:51:28.428Z,30.70
2023-04-03T18:56:48.808Z,30.76
2023-04-03T19:02:09.777Z,31.12
2023-04-03T19:07:30.683Z,31.17
2023-04-03T19:12:51.485Z,31.88
2023-04-03T19:18:12.180Z,32.21
2023-04-03T19:23:33.029Z,32.29
2023-04-03T19:28:53.652Z,32.59
2023-04-03T19:34:14.399Z,32.65
2023-04-03T19:39:37.233Z,32.93
2023-04-03T19:44:58.518Z,33.30
2023-04-03T19:50:19.280Z,33.55
2023-04-03T19:55:40.303Z,33.55
2023-04-03T20:01:01.049Z,33.75
2023-04-03T20:06:21.740Z,34.00
2023-04-03T20:11:42.723Z,34.24
2023-04-03T20:17:04.415Z,34.64
2023-04-03T20:22:24.989Z,34.80
2023-04-03T20:27:45.675Z,35.07
2023-04-03T20:33:06.882Z,35.24
2023-04-03T20:38:27.584Z,35.52
2023-04-03T20:43:48.278Z,35.52
2023-04-03T20:49:09.189Z,35.86
2023-04-03T20:54:29.666Z,36.13
2023-04-03T20:59:52.626Z,36.33
2023-04-03T21:05:13.643Z,36.27
2023-04-03T21:11:11.808Z,36.68
2023-04-03T21:16:33.652Z,36.73
2023-04-03T21:21:55.023Z,36.88
2023-04-03T21:27:15.438Z,37.03
2023-04-03T21:32:36.638Z,37.25
2023-04-03T21:37:57.092Z,37.47
2023-04-03T21:43:17.757Z,37.74
2023-04-03T21:48:39.240Z,37.91
2023-04-03T21:54:00.404Z,38.22
2023-04-03T21:59:21.117Z,38.41
2023-04-03T22:04:41.812Z,38.61
2023-04-03T22:10:02.042Z,38.53
2023-04-03T22:15:22.417Z,38.88
2023-04-03T22:20:44.171Z,39.06
2023-04-03T22:26:09.690Z,39.05
2023-04-03T22:31:30.990Z,39.36
2023-04-03T22:36:53.478Z,39.57
2023-04-03T22:42:13.963Z,39.72
2023-04-03T22:47:34.799Z,39.85
2023-04-03T22:52:55.782Z,39.95
2023-04-03T22:58:16.210Z,40.25
2023-04-03T23:03:37.898Z,40.35
2023-04-03T23:08:58.422Z,40.42
2023-04-03T23:14:18.888Z,40.43
2023-04-03T23:19:39.394Z,40.44
2023-04-03T23:24:59.591Z,40.62
2023-04-03T23:30:21.067Z,40.61
2023-04-03T23:35:46.620Z,41.05
2023-04-03T23:41:07.131Z,41.07
2023-04-03T23:46:27.626Z,41.31
2023-04-03T23:51:48.987Z,41.53
2023-04-03T23:57:09.755Z,41.51
